createdAt,value
2017-11-18T00:01:45.168Z,55.60
2017-11-18T00:04:13.610Z,56.70
2017-11-18T00:06:42.050Z,60.17
2017-11-18T00:09:10.506Z,57.40
2017-11-18T00:11:38.935Z,54.93
2017-11-18T00:14:07.362Z,46.07
2017-11-18T00:16:35.818Z,63.77
2017-11-18T00:19:04.257Z,49.60
2017-11-18T00:21:33.458Z,49.50
2017-11-18T00:24:02.692Z,58.23
2017-11-18T00:26:31.134Z,55.53
2017-11-18T00:29:01.520Z,54.97
2017-11-18T00:31:29.971Z,54.87
2017-11-18T00:33:58.397Z,54.50
2017-11-18T00:36:26.825Z,56.97
2017-11-18T00:38:55.281Z,49.73
2017-11-18T00:41:23.717Z,60.60
2017-11-18T00:43:53.091Z,54.77
2017-11-18T00:46:21.549Z,60.93
2017-11-18T00:48:49.988Z,44.67
2017-11-18T00:51:19.185Z,51.63
2017-11-18T00:53:47.641Z,50.00
2017-11-18T00:56:16.075Z,52.53
2017-11-18T00:58:44.522Z,58.13
2017-11-18T01:01:12.987Z,51.40
2017-11-18T01:03:41.423Z,48.43
2017-11-18T01:06:09.865Z,46.27
2017-11-18T01:08:38.333Z,50.20
2017-11-18T01:11:06.768Z,55.30
2017-11-18T01:13:35.203Z,52.90
2017-11-18T01:16:04.429Z,56.93
2017-11-18T01:18:32.853Z,56.60
2017-11-18T01:21:01.294Z,55.20
2017-11-18T01:23:30.130Z,49.03
2017-11-18T01:25:58.557Z,60.50
2017-11-18T01:28:26.989Z,51.13
2017-11-18T01:30:55.457Z,56.10
2017-11-18T01:33:23.894Z,51.60
2017-11-18T01:35:52.321Z,45.20
2017-11-18T01:38:20.769Z,55.53
2017-11-18T01:40:49.205Z,49.43
2017-11-18T01:43:18.402Z,57.97
2017-11-18T01:45:47.622Z,47.00
2017-11-18T01:48:16.052Z,54.93
2017-11-18T01:50:44.483Z,53.13
2017-11-18T01:53:12.944Z,47.60
2017-11-18T01:55:42.152Z,57.43
2017-11-18T01:58:11.362Z,51.13
2017-11-18T02:00:39.818Z,54.70
2017-11-18T02:03:09.014Z,61.80
2017-11-18T02:05:38.214Z,56.80
2017-11-18T02:08:07.134Z,53.70
2017-11-18T02:10:35.571Z,61.03
2017-11-18T02:13:05.607Z,46.60
2017-11-18T02:15:34.175Z,64.13
2017-11-18T02:18:03.379Z,56.50
2017-11-18T02:20:32.253Z,47.97
2017-11-18T02:23:00.086Z,51.47
2017-11-18T02:25:28.650Z,55.00
2017-11-18T02:27:56.750Z,50.07
2017-11-18T02:30:24.546Z,59.97
2017-11-18T02:32:53.407Z,56.37
2017-11-18T02:35:21.179Z,42.40
2017-11-18T02:37:48.973Z,47.50
2017-11-18T02:40:17.494Z,55.57
2017-11-18T02:42:45.270Z,49.60
2017-11-18T02:45:13.439Z,52.27
2017-11-18T02:47:41.211Z,50.70
2017-11-18T02:50:08.986Z,45.33
2017-11-18T02:52:37.114Z,50.17
2017-11-18T02:55:04.891Z,45.80
2017-11-18T02:57:32.656Z,46.43
2017-11-18T03:00:00.450Z,48.90
2017-11-18T03:02:28.891Z,63.87
2017-11-18T03:04:57.510Z,54.73
2017-11-18T03:07:25.647Z,53.37
2017-11-18T03:09:54.086Z,59.03
2017-11-18T03:12:23.280Z,52.87
2017-11-18T03:14:52.183Z,48.73
2017-11-18T03:17:20.618Z,51.10
2017-11-18T03:19:48.740Z,50.80
2017-11-18T03:22:17.195Z,48.17
2017-11-18T03:24:46.400Z,48.07
2017-11-18T03:27:15.264Z,46.80
2017-11-18T03:29:43.723Z,50.70
2017-11-18T03:32:12.163Z,53.60
2017-11-18T03:34:40.259Z,49.30
2017-11-18T03:37:08.374Z,52.83
2017-11-18T03:39:37.847Z,46.90
2017-11-18T03:42:05.627Z,53.40
2017-11-18T03:44:34.086Z,48.97
2017-11-18T03:47:02.551Z,55.13
2017-11-18T03:49:30.983Z,59.17
2017-11-18T03:52:00.201Z,46.97
2017-11-18T03:54:28.628Z,47.60
2017-11-18T03:56:57.061Z,55.73
2017-11-18T03:59:26.042Z,57.30
2017-11-18T04:01:55.234Z,59.47
2017-11-18T04:04:24.425Z,55.60
2017-11-18T04:06:53.642Z,52.67
2017-11-18T04:09:22.075Z,53.97
2017-11-18T04:11:50.175Z,50.30
2017-11-18T04:14:19.398Z,52.77
2017-11-18T04:16:47.494Z,57.70
2017-11-18T04:19:15.598Z,51.37
2017-11-18T04:21:43.806Z,53.93
2017-11-18T04:24:12.232Z,57.80
2017-11-18T04:26:40.359Z,48.13
2017-11-18T04:29:08.807Z,56.13
2017-11-18T04:31:37.248Z,52.30
2017-11-18T04:34:05.696Z,57.10
2017-11-18T04:36:34.157Z,55.43
2017-11-18T04:39:03.382Z,56.13
2017-11-18T04:41:31.806Z,56.40
2017-11-18T04:44:00.254Z,59.60
2017-11-18T04:46:29.366Z,53.57
2017-11-18T04:48:58.583Z,66.63
2017-11-18T04:51:27.052Z,58.83
2017-11-18T04:53:55.154Z,54.33
2017-11-18T04:56:24.013Z,56.50
2017-11-18T04:58:52.144Z,53.57
2017-11-18T05:01:20.574Z,47.77
2017-11-18T05:03:49.012Z,65.83
2017-11-18T05:06:17.121Z,55.50
2017-11-18T05:08:44.893Z,62.57
2017-11-18T05:11:13.334Z,60.50
2017-11-18T05:13:41.791Z,60.53
2017-11-18T05:16:09.895Z,54.90
2017-11-18T05:18:38.323Z,69.27
2017-11-18T05:21:07.253Z,58.70
2017-11-18T05:23:35.694Z,61.40
2017-11-18T05:26:04.228Z,51.07
2017-11-18T05:28:32.698Z,60.47
2017-11-18T05:31:01.126Z,72.20
2017-11-18T05:33:30.323Z,68.70
2017-11-18T05:35:58.887Z,66.10
2017-11-18T05:38:28.211Z,54.17
2017-11-18T05:40:57.408Z,68.40
2017-11-18T05:43:26.635Z,66.20
2017-11-18T05:45:55.632Z,74.13
2017-11-18T05:48:24.060Z,61.63
2017-11-18T05:50:53.281Z,73.13
2017-11-18T05:53:21.718Z,70.60
2017-11-18T05:55:50.149Z,64.40
2017-11-18T05:58:18.270Z,73.43
2017-11-18T06:00:46.145Z,69.37
2017-11-18T06:03:13.914Z,69.47
2017-11-18T06:05:42.369Z,61.07
2017-11-18T06:08:10.808Z,60.90
2017-11-18T06:10:39.237Z,82.30
2017-11-18T06:13:07.743Z,63.80
2017-11-18T06:15:36.208Z,66.20
2017-11-18T06:18:04.642Z,72.23
2017-11-18T06:20:33.125Z,76.47
2017-11-18T06:23:01.755Z,71.00
2017-11-18T06:25:30.964Z,71.87
2017-11-18T06:28:00.179Z,70.47
2017-11-18T06:30:28.640Z,79.63
2017-11-18T06:32:57.843Z,75.67
2017-11-18T06:35:27.072Z,77.23
2017-11-18T06:37:55.534Z,80.03
2017-11-18T06:40:24.035Z,83.07
2017-11-18T06:42:52.506Z,80.70
2017-11-18T06:45:20.939Z,78.67
2017-11-18T06:47:49.365Z,74.40
2017-11-18T06:50:17.816Z,69.77
2017-11-18T06:52:47.013Z,84.57
2017-11-18T06:55:16.213Z,81.60
2017-11-18T06:57:45.430Z,70.73
2017-11-18T07:00:13.258Z,88.43
2017-11-18T07:02:41.690Z,89.27
2017-11-18T07:05:10.143Z,67.57
2017-11-18T07:07:38.580Z,79.17
2017-11-18T07:10:07.126Z,81.77
2017-11-18T07:12:35.633Z,99.33
2017-11-18T07:15:03.729Z,88.30
2017-11-18T07:17:33.215Z,105.70
2017-11-18T07:20:01.689Z,102.77
2017-11-18T07:22:30.121Z,100.77
2017-11-18T07:24:58.571Z,102.77
2017-11-18T07:27:27.036Z,105.50
2017-11-18T07:29:55.463Z,107.83
2017-11-18T07:32:23.901Z,111.90
2017-11-18T07:34:52.376Z,94.90
2017-11-18T07:37:22.463Z,87.37
2017-11-18T07:39:50.904Z,93.27
2017-11-18T07:42:20.130Z,96.00
2017-11-18T07:44:49.095Z,87.50
2017-11-18T07:47:17.530Z,87.30
2017-11-18T07:49:46.004Z,94.40
2017-11-18T07:52:14.443Z,83.13
2017-11-18T07:54:42.885Z,83.33
2017-11-18T07:57:12.218Z,121.37
2017-11-18T07:59:41.425Z,95.30
2017-11-18T08:02:09.860Z,103.50
2017-11-18T08:04:38.314Z,87.80
2017-11-18T08:07:06.740Z,76.17
2017-11-18T08:09:35.939Z,78.13
2017-11-18T08:12:05.257Z,73.33
2017-11-18T08:14:33.698Z,75.97
2017-11-18T08:17:02.027Z,85.10
2017-11-18T08:19:30.484Z,75.57
2017-11-18T08:21:58.932Z,73.07
2017-11-18T08:24:27.359Z,71.77
2017-11-18T08:26:55.807Z,75.80
2017-11-18T08:29:26.092Z,69.63
2017-11-18T08:31:54.530Z,79.50
2017-11-18T08:34:22.981Z,79.80
2017-11-18T08:36:52.183Z,59.10
2017-11-18T08:39:21.382Z,66.70
2017-11-18T08:41:50.818Z,58.47
2017-11-18T08:44:19.253Z,58.90
2017-11-18T08:46:49.271Z,51.60
2017-11-18T08:49:18.704Z,64.30
2017-11-18T08:51:47.144Z,53.40
2017-11-18T08:54:15.575Z,51.77
2017-11-18T08:56:43.878Z,54.43
2017-11-18T08:59:11.985Z,56.87
2017-11-18T09:01:40.419Z,53.30
2017-11-18T09:04:08.878Z,42.80
2017-11-18T09:06:37.320Z,54.10
2017-11-18T09:09:06.519Z,54.70
2017-11-18T09:11:35.747Z,48.90
2017-11-18T09:14:04.183Z,42.23
2017-11-18T09:16:33.404Z,39.47
2017-11-18T09:19:01.888Z,45.63
2017-11-18T09:21:30.140Z,41.07
2017-11-18T09:23:59.343Z,34.70
2017-11-18T09:26:28.066Z,37.07
2017-11-18T09:28:56.499Z,31.60
2017-11-18T09:31:25.699Z,46.73
2017-11-18T09:33:54.938Z,32.80
2017-11-18T09:36:23.376Z,31.60
2017-11-18T09:38:53.109Z,33.03
2017-11-18T09:41:21.790Z,39.23
2017-11-18T09:43:51.299Z,31.90
2017-11-18T09:46:20.902Z,34.50
2017-11-18T09:48:49.587Z,29.95
2017-11-18T09:51:18.338Z,33.23
2017-11-18T09:53:47.063Z,34.83
2017-11-18T09:56:15.986Z,27.65
2017-11-18T09:58:44.710Z,35.00
2017-11-18T10:01:13.548Z,30.73
2017-11-18T10:03:41.861Z,40.77
2017-11-18T10:06:10.872Z,33.42
2017-11-18T10:08:40.090Z,35.83
2017-11-18T10:11:08.799Z,27.90
2017-11-18T10:13:37.238Z,24.63
2017-11-18T10:16:05.952Z,27.98
2017-11-18T10:18:34.401Z,32.13
2017-11-18T10:21:03.237Z,28.40
2017-11-18T10:23:31.804Z,33.03
2017-11-18T10:26:00.573Z,47.20
2017-11-18T10:28:29.191Z,34.63
2017-11-18T10:30:57.898Z,31.42
2017-11-18T10:33:26.351Z,41.88
2017-11-18T10:35:55.087Z,32.33
2017-11-18T10:38:24.292Z,28.73
2017-11-18T10:40:53.034Z,28.95
2017-11-18T10:43:21.991Z,32.27
2017-11-18T10:45:51.295Z,26.98
2017-11-18T10:48:20.705Z,30.12
2017-11-18T10:50:50.445Z,30.60
2017-11-18T10:53:18.996Z,31.08
2017-11-18T10:55:47.234Z,30.27
2017-11-18T10:58:17.144Z,33.38
2017-11-18T11:00:45.246Z,32.20
2017-11-18T11:03:14.506Z,26.85
2017-11-18T11:05:43.181Z,28.40
2017-11-18T11:08:11.977Z,31.07
2017-11-18T11:10:40.238Z,37.33
2017-11-18T11:13:09.462Z,25.67
2017-11-18T11:15:39.265Z,24.00
2017-11-18T11:18:08.662Z,32.05
2017-11-18T11:20:37.367Z,23.80
2017-11-18T11:23:05.471Z,19.67
2017-11-18T11:25:34.396Z,21.33
2017-11-18T11:28:02.835Z,24.77
2017-11-18T11:30:31.411Z,18.95
2017-11-18T11:33:00.925Z,19.83
2017-11-18T11:35:30.597Z,15.50
2017-11-18T11:37:59.300Z,16.30
2017-11-18T11:40:28.811Z,16.75
2017-11-18T11:42:58.297Z,11.77
2017-11-18T11:45:27.347Z,19.65
2017-11-18T11:47:55.542Z,18.07
2017-11-18T11:50:24.277Z,19.55
2017-11-18T11:52:53.752Z,24.85
2017-11-18T11:55:22.031Z,18.40
2017-11-18T11:57:51.514Z,19.77
2017-11-18T12:00:20.275Z,16.02
2017-11-18T12:02:48.997Z,16.90
2017-11-18T12:05:17.861Z,13.87
2017-11-18T12:07:46.648Z,10.73
2017-11-18T12:10:15.093Z,19.43
2017-11-18T12:12:43.795Z,12.85
2017-11-18T12:15:12.352Z,14.03
2017-11-18T12:17:40.816Z,13.37
2017-11-18T12:20:08.588Z,13.65
2017-11-18T12:22:36.673Z,13.40
2017-11-18T12:25:05.145Z,16.25
2017-11-18T12:27:34.003Z,17.10
2017-11-18T12:30:03.210Z,18.93
2017-11-18T12:32:31.687Z,14.10
2017-11-18T12:35:01.126Z,11.10
2017-11-18T12:37:29.837Z,12.10
2017-11-18T12:39:58.568Z,14.77
2017-11-18T12:42:27.789Z,15.15
2017-11-18T12:44:56.231Z,12.90
2017-11-18T12:47:24.690Z,13.90
2017-11-18T12:49:55.162Z,14.45
2017-11-18T12:52:24.647Z,13.00
2017-11-18T12:54:53.091Z,13.93
2017-11-18T12:57:22.563Z,17.77
2017-11-18T12:59:51.268Z,13.30
2017-11-18T13:02:19.719Z,13.70
2017-11-18T13:04:48.467Z,17.05
2017-11-18T13:07:16.854Z,12.13
2017-11-18T13:09:45.384Z,13.17
2017-11-18T13:12:14.115Z,16.00
2017-11-18T13:14:42.715Z,14.63
2017-11-18T13:17:11.160Z,13.70
2017-11-18T13:19:39.905Z,12.45
2017-11-18T13:22:08.329Z,19.95
2017-11-18T13:24:37.056Z,14.30
2017-11-18T13:27:05.515Z,16.77
2017-11-18T13:29:34.208Z,16.30
2017-11-18T13:32:02.654Z,15.53
2017-11-18T13:34:31.027Z,12.40
2017-11-18T13:36:59.402Z,15.30
2017-11-18T13:39:28.780Z,15.35
2017-11-18T13:41:57.495Z,14.23
2017-11-18T13:44:26.400Z,16.95
2017-11-18T13:46:55.559Z,15.70
2017-11-18T13:49:24.335Z,12.63
2017-11-18T13:51:53.031Z,16.27
2017-11-18T13:54:21.479Z,18.10
2017-11-18T13:56:50.952Z,21.10
2017-11-18T13:59:19.774Z,18.37
2017-11-18T14:01:48.545Z,17.17
2017-11-18T14:04:16.670Z,17.63
2017-11-18T14:06:45.043Z,17.15
2017-11-18T14:09:13.990Z,17.67
2017-11-18T14:11:43.459Z,18.42
2017-11-18T14:14:12.169Z,14.93
2017-11-18T14:16:42.509Z,16.55
2017-11-18T14:19:11.661Z,18.20
2017-11-18T14:21:40.102Z,14.70
2017-11-18T14:24:08.948Z,21.10
2017-11-18T14:26:37.411Z,19.90
2017-11-18T14:29:06.614Z,18.93
2017-11-18T14:31:35.891Z,20.42
2017-11-18T14:34:04.614Z,24.65
2017-11-18T14:36:33.221Z,20.83
2017-11-18T14:39:01.423Z,18.70
2017-11-18T14:41:29.462Z,21.23
2017-11-18T14:43:58.603Z,20.60
2017-11-18T14:46:27.055Z,16.63
2017-11-18T14:48:56.518Z,19.20
2017-11-18T14:51:25.366Z,17.65
2017-11-18T14:53:54.906Z,17.85
2017-11-18T14:56:23.085Z,22.75
2017-11-18T14:58:51.334Z,20.40
2017-11-18T15:01:19.936Z,19.17
2017-11-18T15:03:48.279Z,15.85
2017-11-18T15:06:16.203Z,17.27
2017-11-18T15:08:44.164Z,23.03
2017-11-18T15:11:12.793Z,18.70
2017-11-18T15:13:41.059Z,18.80
2017-11-18T15:19:23.351Z,16.07
2017-11-18T15:21:54.790Z,23.73
2017-11-18T15:24:28.162Z,16.65
2017-11-18T15:27:02.250Z,16.17
2017-11-18T15:29:35.830Z,17.40
2017-11-18T15:32:09.721Z,24.55
2017-11-18T15:37:45.485Z,18.50
2017-11-18T15:40:14.358Z,16.97
2017-11-18T15:42:42.203Z,15.10
2017-11-18T15:45:25.672Z,11.90
2017-11-18T15:47:58.750Z,13.15
2017-11-18T15:50:27.856Z,15.60
2017-11-18T15:53:02.942Z,13.70
2017-11-18T15:58:38.075Z,17.95
2017-11-18T16:01:11.343Z,16.20
2017-11-18T16:03:43.112Z,13.57
2017-11-18T16:06:10.716Z,17.63
2017-11-18T16:08:38.462Z,15.83
2017-11-18T16:11:07.821Z,11.93
2017-11-18T16:13:36.123Z,14.87
2017-11-18T16:16:04.509Z,13.00
2017-11-18T16:18:32.559Z,11.20
2017-11-18T16:21:00.611Z,12.68
2017-11-18T16:23:29.331Z,15.17
2017-11-18T16:25:57.699Z,14.68
2017-11-18T16:28:26.516Z,19.08
2017-11-18T16:30:55.454Z,19.87
2017-11-18T16:33:24.031Z,15.60
2017-11-18T16:35:52.127Z,15.67
2017-11-18T16:38:20.455Z,13.57
2017-11-18T16:40:48.218Z,13.93
2017-11-18T16:43:16.252Z,14.75
2017-11-18T16:45:44.331Z,14.27
2017-11-18T16:48:13.042Z,13.40
2017-11-18T16:50:41.872Z,16.65
2017-11-18T16:53:10.278Z,13.73
2017-11-18T16:55:38.425Z,16.02
2017-11-18T16:58:06.794Z,14.95
2017-11-18T17:00:35.037Z,15.48
2017-11-18T17:03:03.663Z,14.10
2017-11-18T17:05:31.511Z,11.73
2017-11-18T17:08:00.855Z,13.32
2017-11-18T17:10:29.681Z,14.20
2017-11-18T17:12:57.481Z,20.27
2017-11-18T17:15:25.403Z,14.07
2017-11-18T17:17:53.506Z,12.25
2017-11-18T17:20:21.270Z,11.40
2017-11-18T17:22:49.055Z,19.57
2017-11-18T17:25:16.980Z,12.85
2017-11-18T17:27:45.671Z,13.97
2017-11-18T17:30:13.846Z,15.20
2017-11-18T17:32:42.648Z,13.62
2017-11-18T17:35:10.554Z,14.43
2017-11-18T17:37:38.618Z,18.20
2017-11-18T17:40:06.564Z,12.80
2017-11-18T17:42:35.216Z,9.10
2017-11-18T17:45:04.154Z,12.50
2017-11-18T17:47:32.087Z,7.50
2017-11-18T17:50:00.919Z,10.07
2017-11-18T17:52:29.088Z,6.97
2017-11-18T17:54:57.122Z,8.47
2017-11-18T17:57:25.027Z,10.83
2017-11-18T17:59:53.170Z,8.53
2017-11-18T18:02:21.124Z,9.80
2017-11-18T18:04:48.892Z,10.57
2017-11-18T18:07:17.319Z,10.42
2017-11-18T18:09:45.165Z,9.40
2017-11-18T18:12:12.919Z,9.83
2017-11-18T18:14:42.180Z,8.50
2017-11-18T18:17:11.556Z,8.30
2017-11-18T18:19:40.389Z,8.70
2017-11-18T18:24:48.854Z,8.23
2017-11-18T18:27:18.626Z,9.32
2017-11-18T18:29:47.067Z,8.50
2017-11-18T18:32:15.924Z,13.90
2017-11-18T18:34:45.190Z,10.55
2017-11-18T18:37:13.278Z,7.80
2017-11-18T18:39:41.711Z,8.10
2017-11-18T18:42:10.423Z,8.10
2017-11-18T18:44:39.580Z,11.23
2017-11-18T18:47:07.955Z,13.60
2017-11-18T18:49:36.111Z,11.70
2017-11-18T18:52:04.750Z,9.07
2017-11-18T18:54:34.210Z,11.03
2017-11-18T18:57:02.984Z,16.40
2017-11-18T18:59:31.743Z,8.93
2017-11-18T19:01:59.838Z,8.88
2017-11-18T19:04:28.557Z,9.90
2017-11-18T19:06:57.238Z,8.35
2017-11-18T19:09:26.104Z,19.03
2017-11-18T19:11:54.708Z,16.70
2017-11-18T19:14:23.766Z,11.20
2017-11-18T19:16:52.520Z,7.97
2017-11-18T19:19:22.321Z,10.23
2017-11-18T19:21:50.423Z,10.17
2017-11-18T19:24:18.884Z,8.55
2017-11-18T19:26:47.400Z,11.63
2017-11-18T19:29:16.248Z,12.80
2017-11-18T19:31:44.376Z,10.55
2017-11-18T19:34:12.840Z,12.50
2017-11-18T19:36:41.287Z,10.63
2017-11-18T19:39:09.684Z,10.63
2017-11-18T19:41:39.039Z,13.25
2017-11-18T19:44:11.190Z,9.77
2017-11-18T19:46:40.008Z,10.37
2017-11-18T19:49:09.015Z,10.93
2017-11-18T19:51:38.796Z,10.96
2017-11-18T19:54:07.324Z,10.07
2017-11-18T19:56:35.729Z,10.70
2017-11-18T19:59:04.307Z,9.45
2017-11-18T20:01:33.108Z,15.03
2017-11-18T20:04:02.085Z,10.40
2017-11-18T20:06:30.521Z,10.30
2017-11-18T20:08:58.579Z,10.98
2017-11-18T20:11:28.059Z,13.88
2017-11-18T20:13:56.275Z,12.88
2017-11-18T20:16:24.336Z,13.20
2017-11-18T20:18:53.050Z,15.20
2017-11-18T20:21:21.671Z,8.60
2017-11-18T20:23:50.561Z,15.30
2017-11-18T20:26:18.348Z,11.37
2017-11-18T20:28:46.446Z,11.03
2017-11-18T20:33:54.712Z,14.68
2017-11-18T20:36:23.105Z,13.13
2017-11-18T20:38:52.172Z,13.27
2017-11-18T20:41:21.879Z,16.02
2017-11-18T20:43:51.427Z,17.05
2017-11-18T20:46:20.470Z,14.35
2017-11-18T20:48:49.280Z,13.70
2017-11-18T20:51:18.501Z,12.53
2017-11-18T20:53:47.784Z,15.57
2017-11-18T20:56:16.505Z,16.53
2017-11-18T20:58:45.487Z,22.08
2017-11-18T21:01:14.963Z,21.15
2017-11-18T21:03:44.154Z,17.77
2017-11-18T21:06:12.944Z,19.43
2017-11-18T21:08:41.652Z,23.08
2017-11-18T21:11:10.895Z,20.80
2017-11-18T21:13:39.569Z,20.40
2017-11-18T21:16:08.437Z,20.60
2017-11-18T21:18:39.322Z,19.52
2017-11-18T21:21:08.081Z,15.82
2017-11-18T21:23:37.323Z,16.67
2017-11-18T21:26:05.942Z,19.07
2017-11-18T21:28:34.728Z,19.08
2017-11-18T21:31:03.167Z,26.07
2017-11-18T21:33:31.968Z,23.00
2017-11-18T21:36:00.139Z,18.50
2017-11-18T21:38:28.574Z,18.17
2017-11-18T21:40:57.235Z,20.85
2017-11-18T21:43:25.698Z,16.87
2017-11-18T21:45:54.140Z,16.70
2017-11-18T21:48:23.340Z,18.50
2017-11-18T21:50:52.558Z,23.80
2017-11-18T21:53:23.922Z,20.10
2017-11-18T21:55:52.421Z,20.90
2017-11-18T21:58:20.884Z,17.93
2017-11-18T22:00:49.310Z,15.80
2017-11-18T22:03:17.796Z,17.37
2017-11-18T22:05:46.463Z,18.73
2017-11-18T22:08:14.898Z,19.63
2017-11-18T22:10:43.335Z,19.00
2017-11-18T22:13:11.789Z,18.17
2017-11-18T22:15:40.241Z,20.97
2017-11-18T22:18:08.728Z,18.50
2017-11-18T22:20:36.861Z,16.77
2017-11-18T22:23:06.098Z,21.93
2017-11-18T22:25:34.193Z,11.90
2017-11-18T22:28:03.459Z,18.00
2017-11-18T22:30:31.555Z,14.87
2017-11-18T22:33:00.007Z,16.47
2017-11-18T22:35:28.459Z,12.27
2017-11-18T22:37:57.663Z,14.97
2017-11-18T22:40:26.850Z,11.23
2017-11-18T22:42:56.063Z,23.00
2017-11-18T22:45:24.506Z,13.63
2017-11-18T22:47:52.943Z,16.27
2017-11-18T22:50:21.407Z,14.03
2017-11-18T22:52:49.835Z,15.13
2017-11-18T22:55:18.270Z,16.00
2017-11-18T22:57:46.383Z,13.90
2017-11-18T23:00:13.972Z,15.83
2017-11-18T23:02:43.165Z,16.17
2017-11-18T23:05:12.405Z,14.63
2017-11-18T23:07:40.830Z,13.30
2017-11-18T23:10:09.338Z,11.30
2017-11-18T23:12:37.790Z,9.73
2017-11-18T23:15:06.222Z,12.93
2017-11-18T23:17:36.057Z,11.63
2017-11-18T23:20:04.522Z,8.10
2017-11-18T23:22:32.952Z,10.60
2017-11-18T23:25:02.607Z,9.03
2017-11-18T23:27:31.222Z,12.77
2017-11-18T23:29:59.645Z,12.27
2017-11-18T23:32:28.074Z,10.17
2017-11-18T23:34:56.526Z,10.30
2017-11-18T23:37:24.627Z,12.07
2017-11-18T23:39:52.733Z,12.93
2017-11-18T23:42:21.389Z,12.37
2017-11-18T23:44:49.819Z,10.50
2017-11-18T23:47:18.262Z,8.03
2017-11-18T23:49:46.718Z,13.07
2017-11-18T23:52:15.145Z,11.47
2017-11-18T23:54:42.906Z,14.73
2017-11-18T23:57:12.534Z,12.57
2017-11-18T23:59:40.952Z,9.90
